Time;durP1;ratioP1;P1;durP2;ratioP2;P2;SDS_P1;SDS_P2;PMS_P1;PMS_P2;Temp;Humidity;BMP_temperature;BMP_pressure;BME280_temperature;BME280_humidity;BME280_pressure;Samples;Min_cycle;Max_cycle;Signal;HPM_P1;HPM_P2
2023/09/28 00:02:43;;;;;;;;;;;;;;;;;;5092075;28;657;-67
2023/09/28 00:05:09;;;;;;;;;;;;;;;;;;5090931;28;1886;-67
2023/09/28 00:07:34;;;;;;;;;;;;;;;;;;5096089;28;860;-66
2023/09/28 00:10:00;;;;;;;;;;;;;;;;;;5095018;28;907;-66
2023/09/28 00:12:25;;;;;;;;;;;;;;;;;;5095584;28;975;-66
2023/09/28 00:14:50;;;;;;;;;;;;;;;;;;5095832;28;1046;-66
2023/09/28 00:17:16;;;;;;;;;;;;;;;;;;5095728;28;860;-66
2023/09/28 00:19:41;;;;;;;;;;;;;;;;;;5095362;28;946;-66
2023/09/28 00:22:06;;;;;;;;;;;;;;;;;;5094807;28;1006;-65
2023/09/28 00:24:32;;;;;;;;;;;;;;;;;;5094754;28;1963;-66
2023/09/28 00:26:57;;;;;;;;;;;;;;;;;;5095003;28;1153;-66
2023/09/28 00:29:22;;;;;;;;;;;;;;;;;;5095169;28;1050;-67
2023/09/28 00:31:48;;;;;;;;;;;;;;;;;;5095050;28;805;-67
2023/09/28 00:34:14;;;;;;;;;;;;;;;;;;5094163;28;1302;-66
2023/09/28 00:36:39;;;;;;;;;;;;;;;;;;5094121;28;840;-66
2023/09/28 00:39:05;;;;;;;;;;;;;;;;;;5094500;28;911;-66
2023/09/28 00:41:30;;;;;;;;;;;;;;;;;;5093183;28;1006;-66
2023/09/28 00:43:56;;;;;;;;;;;;;;;;;;5094677;28;1975;-66
2023/09/28 00:46:21;;;;;;;;;;;;;;;;;;5094529;28;919;-66
2023/09/28 00:49:06;;;;;;;;;;;;;;;;;;5092717;28;990;-67
2023/09/28 00:51:33;;;;;;;;;;;;;;;;;;5093583;28;1872;-66
2023/09/28 00:54:01;;;;;;;;;;;;;;;;;;5094314;28;876;-66
2023/09/28 00:56:28;;;;;;;;;;;;;;;;;;5094850;28;892;-66
2023/09/28 00:58:54;;;;;;;;;;;;;;;;;;5094937;28;892;-66
2023/09/28 01:01:20;;;;;;;;;;;;;;;;;;5094506;28;924;-66
2023/09/28 01:03:45;;;;;;;;;;;;;;;;;;5093097;28;1956;-66
2023/09/28 01:06:11;;;;;;;;;;;;;;;;;;5095705;28;1141;-66
2023/09/28 01:08:36;;;;;;;;;;;;;;;;;;5093293;28;1497;-67
2023/09/28 01:11:06;;;;;;;;;;;;;;;;;;5093379;28;1235;-66
2023/09/28 01:13:31;;;;;;;;;;;;;;;;;;5094386;28;915;-66
2023/09/28 01:15:56;;;;;;;;;;;;;;;;;;5094800;28;825;-66
2023/09/28 01:18:22;;;;;;;;;;;;;;;;;;5092925;28;911;-67
2023/09/28 01:20:48;;;;;;;;;;;;;;;;;;5093802;28;949;-66
2023/09/28 01:23:14;;;;;;;;;;;;;;;;;;5094457;28;908;-66
2023/09/28 01:25:39;;;;;;;;;;;;;;;;;;5094393;28;840;-66
2023/09/28 01:28:05;;;;;;;;;;;;;;;;;;5094310;28;860;-67
2023/09/28 01:30:31;;;;;;;;;;;;;;;;;;5092659;28;1088;-66
2023/09/28 01:32:56;;;;;;;;;;;;;;;;;;5094412;28;860;-66
2023/09/28 01:35:22;;;;;;;;;;;;;;;;;;5094192;28;1391;-66
2023/09/28 01:38:02;;;;;;;;;;;;;;;;;;5093329;28;1217;-66
2023/09/28 01:40:27;;;;;;;;;;;;;;;;;;5094191;28;911;-66
2023/09/28 01:42:53;;;;;;;;;;;;;;;;;;5094964;28;898;-66
2023/09/28 01:45:18;;;;;;;;;;;;;;;;;;5091766;28;1977;-66
2023/09/28 01:47:44;;;;;;;;;;;;;;;;;;5100721;28;1105;-66
2023/09/28 01:50:09;;;;;;;;;;;;;;;;;;5096158;28;1221;-66
2023/09/28 01:52:34;;;;;;;;;;;;;;;;;;5105884;28;1136;-67
2023/09/28 01:55:00;;;;;;;;;;;;;;;;;;5114331;28;952;-66
2023/09/28 01:57:25;;;;;;;;;;;;;;;;;;5114290;28;894;-66
2023/09/28 01:59:50;;;;;;;;;;;;;;;;;;5112656;28;922;-66
2023/09/28 02:02:16;;;;;;;;;;;;;;;;;;5112237;28;857;-66
2023/09/28 02:04:41;;;;;;;;;;;;;;;;;;5113047;28;1973;-66
2023/09/28 02:07:07;;;;;;;;;;;;;;;;;;5113492;28;863;-66
2023/09/28 02:09:32;;;;;;;;;;;;;;;;;;5112881;28;829;-66
2023/09/28 02:11:57;;;;;;;;;;;;;;;;;;5114236;28;938;-66
2023/09/28 02:14:23;;;;;;;;;;;;;;;;;;5112233;28;872;-67
2023/09/28 02:16:50;;;;;;;;;;;;;;;;;;5111070;28;1187;-66
2023/09/28 02:19:16;;;;;;;;;;;;;;;;;;5101156;28;2017;-66
2023/09/28 02:21:41;;;;;;;;;;;;;;;;;;5097139;28;1207;-67
2023/09/28 02:24:07;;;;;;;;;;;;;;;;;;5106962;28;1960;-66
2023/09/28 02:26:33;;;;;;;;;;;;;;;;;;5112833;28;933;-66
2023/09/28 02:28:59;;;;;;;;;;;;;;;;;;5113154;28;1521;-67
2023/09/28 02:31:24;;;;;;;;;;;;;;;;;;5113354;28;852;-67
2023/09/28 02:33:50;;;;;;;;;;;;;;;;;;5111882;28;886;-66
2023/09/28 02:36:15;;;;;;;;;;;;;;;;;;5112685;28;1210;-66
2023/09/28 02:38:40;;;;;;;;;;;;;;;;;;5094548;28;1537;-66
2023/09/28 02:41:15;;;;;;;;;;;;;;;;;;5113039;28;860;-66
2023/09/28 02:43:40;;;;;;;;;;;;;;;;;;5110995;28;1910;-66
2023/09/28 02:46:06;;;;;;;;;;;;;;;;;;5113105;27;973;-66
2023/09/28 02:48:31;;;;;;;;;;;;;;;;;;5111608;28;875;-66
2023/09/28 02:50:57;;;;;;;;;;;;;;;;;;5112892;27;1204;-67
2023/09/28 02:53:22;;;;;;;;;;;;;;;;;;5111485;28;1512;-66
2023/09/28 02:55:47;;;;;;;;;;;;;;;;;;5111756;27;987;-67
2023/09/28 02:58:13;;;;;;;;;;;;;;;;;;5111846;28;880;-67
2023/09/28 03:00:38;;;;;;;;;;;;;;;;;;5111954;28;848;-67
2023/09/28 03:03:05;;;;;;;;;;;;;;;;;;5112566;28;840;-67
2023/09/28 03:05:30;;;;;;;;;;;;;;;;;;5112310;28;1881;-67
2023/09/28 03:07:58;;;;;;;;;;;;;;;;;;5112368;28;821;-67
2023/09/28 03:10:24;;;;;;;;;;;;;;;;;;5111101;28;1272;-67
2023/09/28 03:12:51;;;;;;;;;;;;;;;;;;5110398;28;1403;-67
2023/09/28 03:15:17;;;;;;;;;;;;;;;;;;5112317;28;895;-67
2023/09/28 03:17:43;;;;;;;;;;;;;;;;;;5112297;28;867;-67
2023/09/28 03:20:15;;;;;;;;;;;;;;;;;;5112504;28;941;-67
2023/09/28 03:22:44;;;;;;;;;;;;;;;;;;5094730;28;1385;-67
2023/09/28 03:25:16;;;;;;;;;;;;;;;;;;5111036;28;1896;-67
2023/09/28 03:27:41;;;;;;;;;;;;;;;;;;5111937;28;910;-67
2023/09/28 03:30:09;;;;;;;;;;;;;;;;;;5112416;28;921;-67
2023/09/28 03:32:34;;;;;;;;;;;;;;;;;;5110477;28;867;-67
2023/09/28 03:34:59;;;;;;;;;;;;;;;;;;5112672;28;1072;-67
2023/09/28 03:37:25;;;;;;;;;;;;;;;;;;5111095;28;1115;-67
2023/09/28 03:39:51;;;;;;;;;;;;;;;;;;5112528;28;870;-67
2023/09/28 03:42:16;;;;;;;;;;;;;;;;;;5112525;28;916;-67
2023/09/28 03:44:42;;;;;;;;;;;;;;;;;;5112227;28;1909;-67
2023/09/28 03:47:07;;;;;;;;;;;;;;;;;;5111466;28;1552;-67
2023/09/28 03:49:33;;;;;;;;;;;;;;;;;;5112590;28;868;-67
2023/09/28 03:52:02;;;;;;;;;;;;;;;;;;5112884;28;992;-67
2023/09/28 03:54:36;;;;;;;;;;;;;;;;;;5112721;28;893;-67
2023/09/28 03:57:02;;;;;;;;;;;;;;;;;;5112063;28;942;-67
2023/09/28 03:59:27;;;;;;;;;;;;;;;;;;5111961;28;836;-67
2023/09/28 04:01:53;;;;;;;;;;;;;;;;;;5110859;28;1209;-67
2023/09/28 04:04:19;;;;;;;;;;;;;;;;;;5110638;28;1964;-67
2023/09/28 04:06:44;;;;;;;;;;;;;;;;;;5112178;28;836;-67
2023/09/28 04:09:11;;;;;;;;;;;;;;;;;;5112374;28;1045;-67
2023/09/28 04:11:37;;;;;;;;;;;;;;;;;;5111711;28;864;-67
2023/09/28 04:14:02;;;;;;;;;;;;;;;;;;5112423;28;891;-67
2023/09/28 04:16:27;;;;;;;;;;;;;;;;;;5111038;28;944;-67
2023/09/28 04:18:53;;;;;;;;;;;;;;;;;;5111537;28;612;-67
2023/09/28 04:21:18;;;;;;;;;;;;;;;;;;5111515;28;916;-67
2023/09/28 04:23:43;;;;;;;;;;;;;;;;;;5110107;28;1957;-67
2023/09/28 04:26:08;;;;;;;;;;;;;;;;;;5111188;28;856;-66
2023/09/28 04:28:34;;;;;;;;;;;;;;;;;;5110691;28;825;-67
2023/09/28 04:30:59;;;;;;;;;;;;;;;;;;5111405;28;863;-67
2023/09/28 04:33:24;;;;;;;;;;;;;;;;;;5111015;28;840;-67
2023/09/28 04:35:50;;;;;;;;;;;;;;;;;;5109158;28;1203;-67
2023/09/28 04:38:15;;;;;;;;;;;;;;;;;;5111047;28;927;-67
2023/09/28 04:40:41;;;;;;;;;;;;;;;;;;5110741;28;970;-67
2023/09/28 04:43:06;;;;;;;;;;;;;;;;;;5111242;28;875;-67
2023/09/28 04:45:31;;;;;;;;;;;;;;;;;;5110576;28;1963;-67
2023/09/28 04:47:58;;;;;;;;;;;;;;;;;;5110915;28;869;-67
2023/09/28 04:50:23;;;;;;;;;;;;;;;;;;5111109;28;1033;-67
2023/09/28 04:52:48;;;;;;;;;;;;;;;;;;5110951;28;1166;-67
2023/09/28 04:55:14;;;;;;;;;;;;;;;;;;5115233;28;848;-67
2023/09/28 04:57:39;;;;;;;;;;;;;;;;;;5114905;28;915;-66
2023/09/28 05:00:06;;;;;;;;;;;;;;;;;;5113683;28;1246;-66
2023/09/28 05:02:32;;;;;;;;;;;;;;;;;;5113716;28;1219;-66
2023/09/28 05:04:57;;;;;;;;;;;;;;;;;;5115334;27;1894;-66
2023/09/28 05:07:22;;;;;;;;;;;;;;;;;;5115539;28;1007;-67
2023/09/28 05:09:48;;;;;;;;;;;;;;;;;;5113583;28;1519;-67
2023/09/28 05:12:13;;;;;;;;;;;;;;;;;;5115355;28;1201;-66
2023/09/28 05:14:38;;;;;;;;;;;;;;;;;;5114690;28;1013;-66
2023/09/28 05:17:03;;;;;;;;;;;;;;;;;;5115696;28;918;-66
2023/09/28 05:19:30;;;;;;;;;;;;;;;;;;5115206;28;894;-67
2023/09/28 05:21:55;;;;;;;;;;;;;;;;;;5113537;28;879;-67
2023/09/28 05:24:20;;;;;;;;;;;;;;;;;;5115010;28;1902;-66
2023/09/28 05:26:46;;;;;;;;;;;;;;;;;;5114134;28;910;-66
2023/09/28 05:29:11;;;;;;;;;;;;;;;;;;5115563;28;904;-67
2023/09/28 05:31:36;;;;;;;;;;;;;;;;;;5114695;28;888;-67
2023/09/28 05:34:01;;;;;;;;;;;;;;;;;;5115118;28;886;-67
2023/09/28 05:36:27;;;;;;;;;;;;;;;;;;5115198;28;1222;-67
2023/09/28 05:38:52;;;;;;;;;;;;;;;;;;5113636;28;1535;-66
2023/09/28 05:41:17;;;;;;;;;;;;;;;;;;5113840;28;892;-67
2023/09/28 05:43:43;;;;;;;;;;;;;;;;;;5113968;28;1913;-67
2023/09/28 05:46:09;;;;;;;;;;;;;;;;;;5114533;28;852;-67
2023/09/28 05:48:34;;;;;;;;;;;;;;;;;;5113638;28;923;-66
2023/09/28 05:50:59;;;;;;;;;;;;;;;;;;5112523;28;908;-67
2023/09/28 05:53:25;;;;;;;;;;;;;;;;;;5113904;28;856;-67
2023/09/28 05:55:51;;;;;;;;;;;;;;;;;;5113040;28;856;-66
2023/09/28 05:58:16;;;;;;;;;;;;;;;;;;5113299;28;950;-67
2023/09/28 06:00:41;;;;;;;;;;;;;;;;;;5113060;28;907;-68
2023/09/28 06:03:07;;;;;;;;;;;;;;;;;;5113170;28;836;-67
2023/09/28 06:05:32;;;;;;;;;;;;;;;;;;5113334;28;1953;-67
2023/09/28 06:07:58;;;;;;;;;;;;;;;;;;5111112;28;1206;-68
2023/09/28 06:10:23;;;;;;;;;;;;;;;;;;5105580;28;1123;-67
2023/09/28 06:12:48;;;;;;;;;;;;;;;;;;5094501;28;1238;-68
2023/09/28 06:15:14;;;;;;;;;;;;;;;;;;5106509;28;1432;-68
2023/09/28 06:17:39;;;;;;;;;;;;;;;;;;5112314;28;1285;-68
2023/09/28 06:20:05;;;;;;;;;;;;;;;;;;5111938;28;1300;-67
2023/09/28 06:22:30;;;;;;;;;;;;;;;;;;5111659;28;939;-67
2023/09/28 06:24:55;;;;;;;;;;;;;;;;;;5112534;28;1905;-68
2023/09/28 06:27:21;;;;;;;;;;;;;;;;;;5112869;28;1114;-67
2023/09/28 06:29:52;;;;;;;;;;;;;;;;;;5111995;28;914;-68
2023/09/28 06:32:18;;;;;;;;;;;;;;;;;;5112823;28;825;-67
2023/09/28 06:34:44;;;;;;;;;;;;;;;;;;5112176;28;1086;-67
2023/09/28 06:37:09;;;;;;;;;;;;;;;;;;5113157;28;856;-68
2023/09/28 06:39:35;;;;;;;;;;;;;;;;;;5111053;28;939;-68
2023/09/28 06:42:00;;;;;;;;;;;;;;;;;;5112586;28;983;-68
2023/09/28 06:44:26;;;;;;;;;;;;;;;;;;5112690;28;1910;-67
2023/09/28 06:46:52;;;;;;;;;;;;;;;;;;5112251;28;895;-68
2023/09/28 06:49:17;;;;;;;;;;;;;;;;;;5112899;28;821;-67
2023/09/28 06:51:42;;;;;;;;;;;;;;;;;;5110546;28;1176;-68
2023/09/28 06:54:08;;;;;;;;;;;;;;;;;;5112715;28;990;-68
2023/09/28 06:56:35;;;;;;;;;;;;;;;;;;5112592;28;912;-68
2023/09/28 06:59:00;;;;;;;;;;;;;;;;;;5110828;28;844;-68
2023/09/28 07:01:26;;;;;;;;;;;;;;;;;;5112631;28;789;-67
2023/09/28 07:03:52;;;;;;;;;;;;;;;;;;5111507;28;1906;-67
2023/09/28 07:06:21;;;;;;;;;;;;;;;;;;5111783;28;890;-68
2023/09/28 07:08:46;;;;;;;;;;;;;;;;;;5111630;28;873;-68
2023/09/28 07:11:11;;;;;;;;;;;;;;;;;;5111938;28;904;-68
2023/09/28 07:13:37;;;;;;;;;;;;;;;;;;5111432;28;1001;-67
2023/09/28 07:16:03;;;;;;;;;;;;;;;;;;5110244;28;753;-67
2023/09/28 07:18:29;;;;;;;;;;;;;;;;;;5111461;28;1325;-68
2023/09/28 07:20:55;;;;;;;;;;;;;;;;;;5111999;28;887;-67
2023/09/28 07:23:20;;;;;;;;;;;;;;;;;;5112215;28;838;-67
2023/09/28 07:25:46;;;;;;;;;;;;;;;;;;5112322;28;1951;-67
2023/09/28 07:28:12;;;;;;;;;;;;;;;;;;5111733;28;1206;-67
2023/09/28 07:30:38;;;;;;;;;;;;;;;;;;5093363;28;1079;-67
2023/09/28 07:33:04;;;;;;;;;;;;;;;;;;5092719;28;891;-67
2023/09/28 07:35:30;;;;;;;;;;;;;;;;;;5090084;28;1373;-67
2023/09/28 07:37:56;;;;;;;;;;;;;;;;;;5091441;28;1048;-67
2023/09/28 07:40:24;;;;;;;;;;;;;;;;;;5091938;28;913;-67
2023/09/28 07:42:50;;;;;;;;;;;;;;;;;;5090636;28;840;-67
2023/09/28 07:45:15;;;;;;;;;;;;;;;;;;5091314;28;1981;-67
2023/09/28 07:47:40;;;;;;;;;;;;;;;;;;5090929;28;947;-67
2023/09/28 07:50:06;;;;;;;;;;;;;;;;;;5089943;28;773;-67
2023/09/28 07:52:31;;;;;;;;;;;;;;;;;;5091166;28;821;-67
2023/09/28 07:54:57;;;;;;;;;;;;;;;;;;5089208;28;1257;-67
2023/09/28 07:57:22;;;;;;;;;;;;;;;;;;5073341;28;1391;-67
2023/09/28 07:59:47;;;;;;;;;;;;;;;;;;5090948;28;1026;-67
2023/09/28 08:02:13;;;;;;;;;;;;;;;;;;5091356;28;1026;-67
2023/09/28 08:04:38;;;;;;;;;;;;;;;;;;5091198;28;1960;-67
2023/09/28 08:07:04;;;;;;;;;;;;;;;;;;5091361;28;848;-67
2023/09/28 08:09:30;;;;;;;;;;;;;;;;;;5092186;28;816;-67
2023/09/28 08:11:55;;;;;;;;;;;;;;;;;;5089680;28;891;-67
2023/09/28 08:14:21;;;;;;;;;;;;;;;;;;5090934;28;840;-67
2023/09/28 08:16:47;;;;;;;;;;;;;;;;;;5091011;28;892;-67
2023/09/28 08:19:13;;;;;;;;;;;;;;;;;;5091187;28;828;-67
2023/09/28 08:21:38;;;;;;;;;;;;;;;;;;5091633;28;793;-67
2023/09/28 08:24:08;;;;;;;;;;;;;;;;;;5091636;28;2011;-67
2023/09/28 08:26:34;;;;;;;;;;;;;;;;;;5092950;28;844;-67
2023/09/28 08:28:59;;;;;;;;;;;;;;;;;;5094837;28;840;-66
2023/09/28 08:31:24;;;;;;;;;;;;;;;;;;5095619;28;848;-67
2023/09/28 08:33:50;;;;;;;;;;;;;;;;;;5094729;28;1114;-67
2023/09/28 08:36:16;;;;;;;;;;;;;;;;;;5093284;28;1201;-67
2023/09/28 08:38:41;;;;;;;;;;;;;;;;;;5094341;28;856;-66
2023/09/28 08:41:08;;;;;;;;;;;;;;;;;;5095080;28;947;-66
2023/09/28 08:43:39;;;;;;;;;;;;;;;;;;5094775;28;1972;-66
2023/09/28 08:46:05;;;;;;;;;;;;;;;;;;5094971;28;1087;-66
2023/09/28 08:48:32;;;;;;;;;;;;;;;;;;5094809;28;679;-67
2023/09/28 08:51:10;;;;;;;;;;;;;;;;;;5094014;28;999;-66
2023/09/28 08:53:37;;;;;;;;;;;;;;;;;;5094493;28;904;-67
2023/09/28 08:56:03;;;;;;;;;;;;;;;;;;5093729;28;848;-67
2023/09/28 08:58:28;;;;;;;;;;;;;;;;;;5094825;28;972;-66
2023/09/28 09:00:54;;;;;;;;;;;;;;;;;;5094894;28;1120;-66
2023/09/28 09:03:21;;;;;;;;;;;;;;;;;;5095420;28;1301;-67
2023/09/28 09:05:46;;;;;;;;;;;;;;;;;;5095309;28;1901;-67
2023/09/28 09:08:14;;;;;;;;;;;;;;;;;;5077080;28;1631;-67
2023/09/28 09:10:40;;;;;;;;;;;;;;;;;;5093068;28;1290;-67
2023/09/28 09:13:14;;;;;;;;;;;;;;;;;;5095417;28;951;-67
2023/09/28 09:15:41;;;;;;;;;;;;;;;;;;5093401;28;1568;-66
2023/09/28 09:18:07;;;;;;;;;;;;;;;;;;5095059;28;967;-67
2023/09/28 09:20:33;;;;;;;;;;;;;;;;;;5094928;28;883;-67
2023/09/28 09:23:18;;;;;;;;;;;;;;;;;;5093291;28;986;-67
2023/09/28 09:25:44;;;;;;;;;;;;;;;;;;5093905;28;1867;-67
2023/09/28 09:28:12;;;;;;;;;;;;;;;;;;5094863;28;781;-67
2023/09/28 09:30:37;;;;;;;;;;;;;;;;;;5094611;28;856;-67
2023/09/28 09:33:07;;;;;;;;;;;;;;;;;;5093241;28;1230;-67
2023/09/28 09:35:33;;;;;;;;;;;;;;;;;;5093914;28;1192;-67
2023/09/28 09:37:58;;;;;;;;;;;;;;;;;;5093083;28;899;-67
2023/09/28 09:40:25;;;;;;;;;;;;;;;;;;5093867;28;849;-67
2023/09/28 09:42:51;;;;;;;;;;;;;;;;;;5093395;28;891;-67
2023/09/28 09:45:18;;;;;;;;;;;;;;;;;;5092784;28;1914;-67
2023/09/28 09:47:46;;;;;;;;;;;;;;;;;;5094018;28;1041;-67
2023/09/28 09:50:12;;;;;;;;;;;;;;;;;;5094221;28;899;-67
2023/09/28 09:52:37;;;;;;;;;;;;;;;;;;5092707;28;991;-67
2023/09/28 09:55:02;;;;;;;;;;;;;;;;;;5093482;28;1087;-67
2023/09/28 09:57:32;;;;;;;;;;;;;;;;;;5093941;28;1179;-67
2023/09/28 09:59:58;;;;;;;;;;;;;;;;;;5092723;28;1163;-67
2023/09/28 10:02:25;;;;;;;;;;;;;;;;;;5093651;28;817;-67
2023/09/28 10:04:52;;;;;;;;;;;;;;;;;;5093185;28;1956;-67
2023/09/28 10:07:18;;;;;;;;;;;;;;;;;;5093239;28;852;-67
2023/09/28 10:09:44;;;;;;;;;;;;;;;;;;5092312;28;793;-67
2023/09/28 10:12:11;;;;;;;;;;;;;;;;;;5092898;28;809;-67
2023/09/28 10:14:38;;;;;;;;;;;;;;;;;;5093042;28;870;-67
2023/09/28 10:17:04;;;;;;;;;;;;;;;;;;5092102;28;875;-67
2023/09/28 10:19:29;;;;;;;;;;;;;;;;;;5092901;28;813;-67
2023/09/28 10:21:56;;;;;;;;;;;;;;;;;;5092125;28;925;-67
2023/09/28 10:24:28;;;;;;;;;;;;;;;;;;5092347;28;1963;-67
2023/09/28 10:26:54;;;;;;;;;;;;;;;;;;5092158;28;927;-67
2023/09/28 10:29:20;;;;;;;;;;;;;;;;;;5092396;28;864;-67
2023/09/28 10:31:46;;;;;;;;;;;;;;;;;;5091906;28;852;-66
2023/09/28 10:34:19;;;;;;;;;;;;;;;;;;5091002;28;868;-67
2023/09/28 10:37:04;;;;;;;;;;;;;;;;;;5091469;28;1428;-67
2023/09/28 10:39:31;;;;;;;;;;;;;;;;;;5092121;28;1143;-68
2023/09/28 10:42:03;;;;;;;;;;;;;;;;;;5091843;28;908;-67
2023/09/28 10:44:31;;;;;;;;;;;;;;;;;;5090721;28;1913;-67
2023/09/28 10:46:56;;;;;;;;;;;;;;;;;;5091665;28;890;-67
2023/09/28 10:49:23;;;;;;;;;;;;;;;;;;5091820;28;820;-66
2023/09/28 10:51:48;;;;;;;;;;;;;;;;;;5090853;28;863;-66
2023/09/28 10:54:14;;;;;;;;;;;;;;;;;;5090635;28;1172;-66
2023/09/28 10:56:39;;;;;;;;;;;;;;;;;;5092256;28;871;-66
2023/09/28 10:59:09;;;;;;;;;;;;;;;;;;5091710;28;892;-65
2023/09/28 11:01:43;;;;;;;;;;;;;;;;;;5093125;28;856;-66
2023/09/28 11:04:09;;;;;;;;;;;;;;;;;;5092451;28;1963;-67
2023/09/28 11:06:35;;;;;;;;;;;;;;;;;;5092953;28;863;-67
2023/09/28 11:09:01;;;;;;;;;;;;;;;;;;5092206;28;871;-67
2023/09/28 11:11:27;;;;;;;;;;;;;;;;;;5093209;28;840;-67
2023/09/28 11:13:56;;;;;;;;;;;;;;;;;;5092403;28;871;-67
2023/09/28 11:16:21;;;;;;;;;;;;;;;;;;5091647;28;935;-66
2023/09/28 11:18:46;;;;;;;;;;;;;;;;;;5092544;28;903;-66
2023/09/28 11:21:12;;;;;;;;;;;;;;;;;;5091000;28;658;-66
2023/09/28 11:23:39;;;;;;;;;;;;;;;;;;5092807;28;880;-66
2023/09/28 11:26:05;;;;;;;;;;;;;;;;;;5092784;28;797;-66
2023/09/28 11:28:31;;;;;;;;;;;;;;;;;;5091831;28;856;-67
2023/09/28 11:31:07;;;;;;;;;;;;;;;;;;5091393;28;829;-67
2023/09/28 11:33:33;;;;;;;;;;;;;;;;;;5091024;28;908;-68
2023/09/28 11:35:58;;;;;;;;;;;;;;;;;;5090711;28;1068;-68
2023/09/28 11:38:23;;;;;;;;;;;;;;;;;;5089393;28;1297;-67
2023/09/28 11:40:51;;;;;;;;;;;;;;;;;;5089916;28;1196;-68
2023/09/28 11:43:17;;;;;;;;;;;;;;;;;;5090174;28;955;-67
2023/09/28 11:45:42;;;;;;;;;;;;;;;;;;5090642;28;1902;-68
2023/09/28 11:48:10;;;;;;;;;;;;;;;;;;5090543;28;923;-68
2023/09/28 11:50:37;;;;;;;;;;;;;;;;;;5091170;28;901;-68
2023/09/28 11:53:06;;;;;;;;;;;;;;;;;;5090441;28;887;-68
2023/09/28 11:55:32;;;;;;;;;;;;;;;;;;5090862;28;1054;-66
2023/09/28 11:57:57;;;;;;;;;;;;;;;;;;5090656;28;991;-66
2023/09/28 12:00:24;;;;;;;;;;;;;;;;;;5090904;28;868;-67
2023/09/28 12:02:50;;;;;;;;;;;;;;;;;;5093781;28;642;-66
2023/09/28 12:05:17;;;;;;;;;;;;;;;;;;5095010;28;1894;-67
2023/09/28 12:07:42;;;;;;;;;;;;;;;;;;5095291;28;832;-67
2023/09/28 12:10:14;;;;;;;;;;;;;;;;;;5095018;28;958;-67
2023/09/28 12:12:40;;;;;;;;;;;;;;;;;;5095205;28;872;-67
2023/09/28 12:15:10;;;;;;;;;;;;;;;;;;5094747;28;841;-67
2023/09/28 12:17:35;;;;;;;;;;;;;;;;;;5095379;28;1003;-67
2023/09/28 12:20:01;;;;;;;;;;;;;;;;;;5094724;28;907;-67
2023/09/28 12:22:26;;;;;;;;;;;;;;;;;;5094925;28;860;-67
2023/09/28 12:24:51;;;;;;;;;;;;;;;;;;5094288;28;1956;-67
2023/09/28 12:27:18;;;;;;;;;;;;;;;;;;5094672;28;951;-67
2023/09/28 12:29:43;;;;;;;;;;;;;;;;;;5094922;28;825;-67
2023/09/28 12:32:09;;;;;;;;;;;;;;;;;;5098894;28;1150;-67
2023/09/28 12:34:34;;;;;;;;;;;;;;;;;;5113326;28;1079;-67
2023/09/28 12:36:59;;;;;;;;;;;;;;;;;;5114297;28;930;-67
2023/09/28 12:39:24;;;;;;;;;;;;;;;;;;5115119;28;1049;-67
2023/09/28 12:41:51;;;;;;;;;;;;;;;;;;5112885;28;836;-67
2023/09/28 12:44:17;;;;;;;;;;;;;;;;;;5114502;28;1963;-67
2023/09/28 12:46:42;;;;;;;;;;;;;;;;;;5115168;28;856;-66
2023/09/28 12:49:07;;;;;;;;;;;;;;;;;;5114154;28;927;-66
2023/09/28 12:51:33;;;;;;;;;;;;;;;;;;5115363;28;907;-66
2023/09/28 12:53:58;;;;;;;;;;;;;;;;;;5114423;28;808;-67
2023/09/28 12:56:23;;;;;;;;;;;;;;;;;;5114762;28;848;-66
2023/09/28 12:58:49;;;;;;;;;;;;;;;;;;5114279;28;994;-66
2023/09/28 13:01:14;;;;;;;;;;;;;;;;;;5115353;28;796;-67
2023/09/28 13:03:40;;;;;;;;;;;;;;;;;;5114661;28;828;-66
2023/09/28 13:06:06;;;;;;;;;;;;;;;;;;5115094;28;1897;-66
2023/09/28 13:08:31;;;;;;;;;;;;;;;;;;5115188;28;905;-66
2023/09/28 13:10:56;;;;;;;;;;;;;;;;;;5115118;28;927;-66
2023/09/28 13:13:22;;;;;;;;;;;;;;;;;;5113506;28;832;-67
2023/09/28 13:15:47;;;;;;;;;;;;;;;;;;5114557;28;963;-67
2023/09/28 13:18:14;;;;;;;;;;;;;;;;;;5116311;28;840;-66
2023/09/28 13:20:41;;;;;;;;;;;;;;;;;;5114679;28;1410;-67
2023/09/28 13:23:07;;;;;;;;;;;;;;;;;;5114266;28;1206;-67
2023/09/28 13:25:33;;;;;;;;;;;;;;;;;;5115226;28;1898;-67
2023/09/28 13:27:58;;;;;;;;;;;;;;;;;;5114391;28;883;-67
2023/09/28 13:30:23;;;;;;;;;;;;;;;;;;5114610;28;904;-67
2023/09/28 13:32:50;;;;;;;;;;;;;;;;;;5113858;28;942;-66
2023/09/28 13:35:16;;;;;;;;;;;;;;;;;;5112614;28;1381;-67
2023/09/28 13:37:41;;;;;;;;;;;;;;;;;;5113871;28;868;-67
2023/09/28 13:40:15;;;;;;;;;;;;;;;;;;5113364;28;836;-66
2023/09/28 13:42:40;;;;;;;;;;;;;;;;;;5096824;28;1907;-67
2023/09/28 13:45:06;;;;;;;;;;;;;;;;;;5113732;28;1971;-67
2023/09/28 13:47:31;;;;;;;;;;;;;;;;;;5113322;28;923;-67
2023/09/28 13:49:56;;;;;;;;;;;;;;;;;;5112978;28;915;-67
2023/09/28 13:52:23;;;;;;;;;;;;;;;;;;5112262;28;880;-67
2023/09/28 13:54:49;;;;;;;;;;;;;;;;;;5112841;28;821;-68
2023/09/28 13:57:15;;;;;;;;;;;;;;;;;;5113306;28;817;-68
2023/09/28 13:59:41;;;;;;;;;;;;;;;;;;5113694;28;839;-65
2023/09/28 14:02:12;;;;;;;;;;;;;;;;;;5113722;28;935;-65
2023/09/28 14:04:37;;;;;;;;;;;;;;;;;;5113246;28;1953;-68
2023/09/28 14:07:02;;;;;;;;;;;;;;;;;;5113101;28;789;-68
2023/09/28 14:09:31;;;;;;;;;;;;;;;;;;5113273;28;950;-68
2023/09/28 14:11:56;;;;;;;;;;;;;;;;;;5111495;28;1148;-68
2023/09/28 14:14:24;;;;;;;;;;;;;;;;;;5111963;28;821;-65
2023/09/28 14:16:49;;;;;;;;;;;;;;;;;;5111692;28;904;-67
2023/09/28 14:19:15;;;;;;;;;;;;;;;;;;5111763;28;899;-67
2023/09/28 14:21:40;;;;;;;;;;;;;;;;;;5112155;28;911;-68
2023/09/28 14:24:06;;;;;;;;;;;;;;;;;;5111547;28;1894;-68
2023/09/28 14:26:32;;;;;;;;;;;;;;;;;;5111898;28;1130;-68
2023/09/28 14:28:57;;;;;;;;;;;;;;;;;;5112032;28;823;-67
2023/09/28 14:31:23;;;;;;;;;;;;;;;;;;5111454;28;812;-68
2023/09/28 14:33:48;;;;;;;;;;;;;;;;;;5112651;28;836;-68
2023/09/28 14:36:14;;;;;;;;;;;;;;;;;;5111339;28;1444;-67
2023/09/28 14:38:39;;;;;;;;;;;;;;;;;;5113034;28;840;-68
2023/09/28 14:41:05;;;;;;;;;;;;;;;;;;5112610;28;966;-68
2023/09/28 14:43:30;;;;;;;;;;;;;;;;;;5112717;28;1002;-68
2023/09/28 14:45:56;;;;;;;;;;;;;;;;;;5111257;28;1918;-66
2023/09/28 14:48:21;;;;;;;;;;;;;;;;;;5112801;28;899;-67
2023/09/28 14:50:46;;;;;;;;;;;;;;;;;;5112670;28;966;-67
2023/09/28 14:53:13;;;;;;;;;;;;;;;;;;5112257;28;821;-67
2023/09/28 14:55:38;;;;;;;;;;;;;;;;;;5113623;28;824;-66
2023/09/28 14:58:04;;;;;;;;;;;;;;;;;;5113361;28;923;-66
2023/09/28 15:00:30;;;;;;;;;;;;;;;;;;5113477;28;836;-66
2023/09/28 15:02:56;;;;;;;;;;;;;;;;;;5113084;28;999;-67
2023/09/28 15:05:21;;;;;;;;;;;;;;;;;;5111671;28;1956;-67
2023/09/28 15:07:46;;;;;;;;;;;;;;;;;;5112456;28;836;-67
2023/09/28 15:10:12;;;;;;;;;;;;;;;;;;5112480;28;1171;-67
2023/09/28 15:12:37;;;;;;;;;;;;;;;;;;5112058;28;852;-67
2023/09/28 15:15:03;;;;;;;;;;;;;;;;;;5111995;28;887;-67
2023/09/28 15:17:28;;;;;;;;;;;;;;;;;;5112402;28;856;-67
2023/09/28 15:19:54;;;;;;;;;;;;;;;;;;5110810;28;1520;-65
2023/09/28 15:22:19;;;;;;;;;;;;;;;;;;5111905;28;833;-67
2023/09/28 15:24:44;;;;;;;;;;;;;;;;;;5112028;28;1894;-67
2023/09/28 15:27:09;;;;;;;;;;;;;;;;;;5111387;28;899;-67
2023/09/28 15:29:35;;;;;;;;;;;;;;;;;;5111877;28;856;-67
2023/09/28 15:32:00;;;;;;;;;;;;;;;;;;5111839;28;820;-68
2023/09/28 15:34:25;;;;;;;;;;;;;;;;;;5111596;28;840;-67
2023/09/28 15:36:51;;;;;;;;;;;;;;;;;;5110423;28;1285;-67
2023/09/28 15:39:16;;;;;;;;;;;;;;;;;;5111721;28;1104;-68
2023/09/28 15:41:41;;;;;;;;;;;;;;;;;;5111527;28;924;-68
2023/09/28 15:44:07;;;;;;;;;;;;;;;;;;5110129;28;1914;-68
2023/09/28 15:46:33;;;;;;;;;;;;;;;;;;5111415;28;958;-67
2023/09/28 15:48:59;;;;;;;;;;;;;;;;;;5111623;28;923;-67
2023/09/28 15:51:24;;;;;;;;;;;;;;;;;;5110506;28;1389;-67
2023/09/28 15:53:49;;;;;;;;;;;;;;;;;;5110554;28;1220;-67
2023/09/28 15:56:15;;;;;;;;;;;;;;;;;;5111769;28;850;-68
2023/09/28 15:58:40;;;;;;;;;;;;;;;;;;5112020;28;872;-67
2023/09/28 16:01:09;;;;;;;;;;;;;;;;;;5112159;28;947;-68
2023/09/28 16:03:35;;;;;;;;;;;;;;;;;;5111802;28;852;-67
2023/09/28 16:06:00;;;;;;;;;;;;;;;;;;5111817;28;1971;-66
2023/09/28 16:08:25;;;;;;;;;;;;;;;;;;5111878;28;895;-66
2023/09/28 16:10:53;;;;;;;;;;;;;;;;;;5111780;28;942;-67
2023/09/28 16:13:19;;;;;;;;;;;;;;;;;;5112497;28;903;-66
2023/09/28 16:15:44;;;;;;;;;;;;;;;;;;5111818;28;907;-66
2023/09/28 16:18:11;;;;;;;;;;;;;;;;;;5111860;28;1003;-66
2023/09/28 16:20:36;;;;;;;;;;;;;;;;;;5110627;28;1249;-66
2023/09/28 16:23:02;;;;;;;;;;;;;;;;;;5112067;28;891;-66
2023/09/28 16:25:28;;;;;;;;;;;;;;;;;;5111986;28;1909;-66
2023/09/28 16:27:53;;;;;;;;;;;;;;;;;;5112052;28;869;-66
2023/09/28 16:30:19;;;;;;;;;;;;;;;;;;5112199;28;915;-66
2023/09/28 16:32:44;;;;;;;;;;;;;;;;;;5111793;28;824;-66
2023/09/28 16:35:09;;;;;;;;;;;;;;;;;;5111056;28;1151;-66
2023/09/28 16:37:35;;;;;;;;;;;;;;;;;;5111398;28;1076;-66
2023/09/28 16:40:00;;;;;;;;;;;;;;;;;;5111356;28;871;-67
2023/09/28 16:42:25;;;;;;;;;;;;;;;;;;5111266;28;1054;-66
2023/09/28 16:44:51;;;;;;;;;;;;;;;;;;5110939;28;1922;-66
2023/09/28 16:47:16;;;;;;;;;;;;;;;;;;5111212;28;875;-66
2023/09/28 16:49:41;;;;;;;;;;;;;;;;;;5114012;28;1154;-66
2023/09/28 16:52:06;;;;;;;;;;;;;;;;;;5115981;28;809;-67
2023/09/28 16:54:32;;;;;;;;;;;;;;;;;;5115626;28;891;-67
2023/09/28 16:56:57;;;;;;;;;;;;;;;;;;5115720;28;789;-66
2023/09/28 16:59:22;;;;;;;;;;;;;;;;;;5115987;28;851;-67
2023/09/28 17:01:47;;;;;;;;;;;;;;;;;;5115127;28;904;-67
2023/09/28 17:04:13;;;;;;;;;;;;;;;;;;5113572;28;1964;-67
2023/09/28 17:06:40;;;;;;;;;;;;;;;;;;5115268;28;979;-67
2023/09/28 17:09:05;;;;;;;;;;;;;;;;;;5114444;28;819;-67